createdAt,value
2019-03-01T00:01:14.042Z,33.40
2019-03-01T00:03:55.260Z,31.20
2019-03-01T00:06:35.924Z,35.43
2019-03-01T00:09:17.027Z,31.63
2019-03-01T00:11:57.993Z,33.80
2019-03-01T00:14:38.823Z,29.50
2019-03-01T00:17:19.402Z,31.83
2019-03-01T00:20:00.338Z,29.83
2019-03-01T00:22:41.077Z,29.97
2019-03-01T00:25:22.140Z,32.60
2019-03-01T00:28:02.903Z,38.07
2019-03-01T00:30:43.418Z,33.63
2019-03-01T00:33:24.195Z,36.40
2019-03-01T00:36:05.086Z,32.57
2019-03-01T00:38:46.063Z,29.37
2019-03-01T00:41:27.093Z,32.83
2019-03-01T00:44:07.902Z,29.17
2019-03-01T00:46:48.407Z,34.77
2019-03-01T00:49:30.568Z,29.80
2019-03-01T00:52:11.704Z,34.33
2019-03-01T00:54:52.788Z,28.33
2019-03-01T00:57:33.671Z,32.60
2019-03-01T01:00:14.424Z,29.70
2019-03-01T01:02:55.358Z,32.23
2019-03-01T01:05:35.864Z,27.90
2019-03-01T01:08:04.416Z,29.07
2019-03-01T01:10:52.216Z,31.50
2019-03-01T01:13:40.036Z,28.00
2019-03-01T01:16:20.864Z,32.00
2019-03-01T01:19:01.870Z,31.07
2019-03-01T01:21:42.251Z,30.47
2019-03-01T01:24:22.897Z,28.33
2019-03-01T01:27:03.192Z,27.27
2019-03-01T01:29:43.980Z,26.13
2019-03-01T01:32:24.730Z,29.90
2019-03-01T01:35:05.759Z,28.60
2019-03-01T01:37:46.183Z,26.83
2019-03-01T01:40:27.016Z,28.63
2019-03-01T01:42:55.496Z,27.63
2019-03-01T01:45:43.294Z,30.60
2019-03-01T01:48:24.106Z,31.90
2019-03-01T01:51:04.632Z,32.17
2019-03-01T01:53:45.469Z,28.70
2019-03-01T01:56:26.336Z,33.63
2019-03-01T01:59:07.227Z,29.17
2019-03-01T02:01:47.765Z,34.00
2019-03-01T02:04:28.490Z,30.67
2019-03-01T02:07:09.047Z,33.73
2019-03-01T02:09:49.564Z,35.73
2019-03-01T02:12:30.345Z,38.20
2019-03-01T02:15:12.658Z,38.57
2019-03-01T02:17:51.674Z,43.30
2019-03-01T02:20:39.478Z,48.40
2019-03-01T02:23:20.613Z,41.43
2019-03-01T02:26:01.552Z,48.77
2019-03-01T02:28:42.354Z,55.27
2019-03-01T02:31:23.292Z,59.63
2019-03-01T02:34:04.411Z,64.37
2019-03-01T02:36:45.302Z,66.37
2019-03-01T02:39:26.220Z,66.00
2019-03-01T02:42:07.372Z,70.67
2019-03-01T02:44:35.847Z,68.33
2019-03-01T02:47:23.723Z,76.83
2019-03-01T02:50:04.220Z,80.53
2019-03-01T02:52:45.149Z,85.53
2019-03-01T02:55:26.016Z,88.30
2019-03-01T02:58:06.956Z,84.53
2019-03-01T03:00:47.564Z,100.63
2019-03-01T03:03:28.152Z,97.20
2019-03-01T03:06:28.473Z,102.63
2019-03-01T03:09:10.733Z,103.97
2019-03-01T03:11:51.647Z,112.47
2019-03-01T03:14:32.240Z,108.70
2019-03-01T03:17:14.981Z,111.63
2019-03-01T03:19:56.220Z,110.30
2019-03-01T03:22:37.171Z,129.10
2019-03-01T03:25:17.689Z,129.93
2019-03-01T03:27:58.652Z,130.93
2019-03-01T03:30:39.278Z,137.53
2019-03-01T03:33:20.624Z,133.23
2019-03-01T03:36:01.614Z,139.67
2019-03-01T03:38:43.013Z,137.90
2019-03-01T03:41:23.375Z,141.33
2019-03-01T03:44:04.099Z,145.93
2019-03-01T03:46:45.080Z,131.80
2019-03-01T03:49:25.581Z,134.00
2019-03-01T03:52:06.222Z,143.37
2019-03-01T03:54:47.060Z,139.83
2019-03-01T03:57:27.968Z,129.57
2019-03-01T03:59:56.509Z,136.50
2019-03-01T04:02:44.389Z,134.77
2019-03-01T04:05:32.199Z,132.40
2019-03-01T04:08:20.097Z,114.13
2019-03-01T04:11:00.993Z,111.17
2019-03-01T04:13:41.595Z,113.43
2019-03-01T04:16:10.046Z,112.40
2019-03-01T04:18:57.852Z,104.93
2019-03-01T04:21:36.658Z,119.97
2019-03-01T04:24:17.178Z,107.27
2019-03-01T04:26:57.840Z,111.47
2019-03-01T04:29:38.357Z,106.80
2019-03-01T04:32:19.044Z,114.33
2019-03-01T04:34:59.814Z,108.80
2019-03-01T04:37:40.561Z,113.07
2019-03-01T04:43:29.111Z,102.40
2019-03-01T04:46:09.360Z,100.77
2019-03-01T04:48:50.028Z,110.40
2019-03-01T04:51:30.787Z,107.97
2019-03-01T04:54:13.343Z,113.17
2019-03-01T04:56:54.149Z,113.17
2019-03-01T04:59:35.157Z,122.57
2019-03-01T05:02:16.162Z,139.60
2019-03-01T05:04:56.988Z,142.50
2019-03-01T05:07:38.014Z,140.27
2019-03-01T05:10:18.805Z,144.93
2019-03-01T05:12:59.704Z,149.73
2019-03-01T05:15:40.253Z,153.60
2019-03-01T05:18:20.800Z,147.33
2019-03-01T05:21:01.674Z,145.03
2019-03-01T05:23:42.088Z,147.97
2019-03-01T05:26:22.740Z,154.73
2019-03-01T05:29:03.202Z,160.80
2019-03-01T05:31:44.136Z,167.20
2019-03-01T05:34:24.746Z,156.73
2019-03-01T05:37:05.674Z,163.30
2019-03-01T05:39:46.451Z,159.27
2019-03-01T05:42:27.182Z,150.03
2019-03-01T05:45:08.041Z,159.70
2019-03-01T05:47:48.981Z,158.00
2019-03-01T05:50:29.629Z,155.87
2019-03-01T05:53:10.672Z,151.30
2019-03-01T05:55:51.177Z,154.30
2019-03-01T05:58:31.590Z,171.10
2019-03-01T06:01:12.486Z,156.60
2019-03-01T06:03:53.394Z,171.10
2019-03-01T06:06:33.973Z,172.17
2019-03-01T06:09:14.347Z,147.90
2019-03-01T06:11:55.117Z,147.27
2019-03-01T06:14:35.983Z,148.97
2019-03-01T06:17:17.072Z,144.10
2019-03-01T06:19:57.415Z,152.80
2019-03-01T06:22:38.204Z,151.53
2019-03-01T06:25:18.689Z,152.60
2019-03-01T06:27:59.427Z,153.83
2019-03-01T06:30:40.183Z,134.80
2019-03-01T06:33:20.982Z,134.93
2019-03-01T06:36:01.925Z,135.40
2019-03-01T06:38:47.342Z,130.33
2019-03-01T06:41:32.376Z,128.43
2019-03-01T06:47:27.986Z,137.27
2019-03-01T06:50:10.196Z,143.63
2019-03-01T06:52:51.166Z,124.60
2019-03-01T06:55:31.616Z,136.30
2019-03-01T06:58:12.478Z,151.67
2019-03-01T07:00:57.482Z,135.43
2019-03-01T07:03:37.860Z,143.10
2019-03-01T07:06:18.634Z,141.00
2019-03-01T07:08:47.135Z,141.17
2019-03-01T07:11:34.932Z,131.73
2019-03-01T07:14:15.972Z,144.53
2019-03-01T07:16:56.684Z,154.13
2019-03-01T07:19:37.483Z,143.67
2019-03-01T07:22:18.367Z,160.27
2019-03-01T07:24:59.294Z,155.83
2019-03-01T07:27:40.116Z,192.17
2019-03-01T07:30:20.844Z,176.57
2019-03-01T07:33:01.659Z,183.83
2019-03-01T07:35:42.504Z,179.83
2019-03-01T07:38:23.326Z,198.90
2019-03-01T07:41:04.015Z,182.93
2019-03-01T07:43:44.685Z,188.67
2019-03-01T07:46:25.661Z,177.23
2019-03-01T07:48:54.228Z,178.80
2019-03-01T07:51:42.037Z,176.73
2019-03-01T07:54:23.018Z,172.30
2019-03-01T07:57:03.827Z,179.57
2019-03-01T07:59:44.609Z,167.23
2019-03-01T08:02:25.357Z,164.30
2019-03-01T08:05:05.955Z,186.50
2019-03-01T08:07:55.685Z,196.73
2019-03-01T08:10:29.400Z,190.77
2019-03-01T08:13:14.776Z,176.90
2019-03-01T08:15:54.280Z,183.67
2019-03-01T08:18:34.926Z,192.53
2019-03-01T08:21:06.270Z,210.13
2019-03-01T08:23:52.960Z,190.80
2019-03-01T08:26:34.050Z,208.73
2019-03-01T08:29:16.027Z,187.77
2019-03-01T08:31:56.954Z,179.37
2019-03-01T08:34:37.697Z,188.30
2019-03-01T08:37:08.160Z,180.23
2019-03-01T08:39:55.728Z,172.13
2019-03-01T08:42:36.571Z,152.23
2019-03-01T08:45:18.046Z,166.33
2019-03-01T08:47:59.708Z,167.77
2019-03-01T08:50:40.695Z,175.70
2019-03-01T08:53:11.386Z,178.13
2019-03-01T08:55:58.762Z,166.03
2019-03-01T08:58:41.572Z,157.07
2019-03-01T09:01:22.051Z,100.67
2019-03-01T09:04:02.792Z,73.03
2019-03-01T09:06:43.371Z,57.60
2019-03-01T09:09:24.975Z,47.90
2019-03-01T09:12:06.218Z,41.03
2019-03-01T09:14:46.727Z,32.20
2019-03-01T09:17:27.388Z,32.27
2019-03-01T09:20:07.972Z,25.47
2019-03-01T09:22:48.956Z,22.70
2019-03-01T09:25:29.551Z,18.53
2019-03-01T09:27:58.029Z,18.53
2019-03-01T09:30:45.861Z,22.77
2019-03-01T09:33:27.134Z,20.17
2019-03-01T09:36:14.458Z,22.87
2019-03-01T09:38:54.785Z,15.27
2019-03-01T09:41:36.551Z,16.70
2019-03-01T09:44:18.644Z,13.33
2019-03-01T09:47:01.697Z,14.00
2019-03-01T09:49:29.787Z,17.83
2019-03-01T09:52:20.401Z,18.37
2019-03-01T09:55:08.106Z,18.87
2019-03-01T09:57:49.109Z,21.90
2019-03-01T10:00:30.021Z,19.30
2019-03-01T10:03:11.245Z,26.43
2019-03-01T10:05:51.886Z,30.20
2019-03-01T10:08:32.713Z,29.23
2019-03-01T10:11:13.716Z,30.43
2019-03-01T10:13:54.385Z,28.37
2019-03-01T10:16:35.059Z,24.90
2019-03-01T10:19:03.676Z,24.33
2019-03-01T10:21:51.476Z,24.20
2019-03-01T10:24:32.474Z,22.93
2019-03-01T10:27:13.296Z,21.73
2019-03-01T10:29:53.875Z,21.80
2019-03-01T10:32:34.756Z,15.80
2019-03-01T10:35:16.229Z,13.40
2019-03-01T10:37:57.293Z,17.87
2019-03-01T10:40:38.114Z,16.10
2019-03-01T10:43:19.121Z,15.23
2019-03-01T10:45:59.879Z,18.50
2019-03-01T10:48:40.532Z,14.37
2019-03-01T10:51:21.037Z,10.77
2019-03-01T10:54:01.575Z,10.97
2019-03-01T10:56:42.043Z,14.27
2019-03-01T10:59:22.408Z,16.13
2019-03-01T11:02:02.908Z,15.53
2019-03-01T11:04:43.812Z,17.80
2019-03-01T11:07:24.861Z,18.43
2019-03-01T11:10:05.550Z,16.87
2019-03-01T11:12:46.340Z,20.37
2019-03-01T11:15:26.996Z,19.87
2019-03-01T11:18:08.030Z,20.23
2019-03-01T11:20:51.146Z,16.73
2019-03-01T11:23:31.564Z,14.93
2019-03-01T11:26:12.304Z,18.13
2019-03-01T11:28:53.324Z,23.40
2019-03-01T11:31:34.459Z,16.53
2019-03-01T11:34:15.464Z,24.43
2019-03-01T11:36:56.372Z,18.20
2019-03-01T11:39:37.113Z,23.70
2019-03-01T11:42:17.984Z,17.93
2019-03-01T11:44:58.754Z,21.03
2019-03-01T11:47:39.351Z,20.40
2019-03-01T11:50:20.374Z,22.50
2019-03-01T11:53:01.218Z,21.97
2019-03-01T11:55:42.423Z,18.60
2019-03-01T11:58:23.563Z,15.87
2019-03-01T12:01:04.560Z,14.17
2019-03-01T12:03:33.084Z,14.50
2019-03-01T12:06:20.901Z,12.60
2019-03-01T12:09:08.793Z,18.63
2019-03-01T12:11:49.075Z,10.80
2019-03-01T12:14:29.451Z,14.60
2019-03-01T12:17:10.258Z,14.10
2019-03-01T12:19:51.847Z,10.63
2019-03-01T12:22:32.194Z,12.27
2019-03-01T12:25:13.132Z,12.30
2019-03-01T12:27:53.891Z,10.13
2019-03-01T12:30:34.875Z,16.27
2019-03-01T12:33:15.178Z,9.87
2019-03-01T12:35:55.583Z,10.30
2019-03-01T12:38:36.516Z,10.43
2019-03-01T12:41:17.248Z,10.80
2019-03-01T12:43:57.700Z,8.43
2019-03-01T12:46:38.379Z,6.17
2019-03-01T12:49:19.449Z,8.30
2019-03-01T12:52:00.474Z,6.03
2019-03-01T12:54:41.052Z,5.93
2019-03-01T12:57:21.616Z,4.57
2019-03-01T13:00:02.374Z,4.90
2019-03-01T13:02:42.699Z,7.60
2019-03-01T13:05:25.691Z,3.90
2019-03-01T13:08:06.129Z,5.60
2019-03-01T13:10:46.837Z,7.30
2019-03-01T13:13:27.536Z,6.03
2019-03-01T13:16:08.128Z,3.77
2019-03-01T13:18:51.281Z,9.10
2019-03-01T13:21:31.091Z,2.97
2019-03-01T13:24:12.603Z,6.93
2019-03-01T13:26:54.377Z,6.23
2019-03-01T13:29:35.334Z,6.53
2019-03-01T13:32:15.911Z,5.43
2019-03-01T13:34:56.846Z,4.10
2019-03-01T13:37:37.712Z,4.03
2019-03-01T13:40:20.958Z,8.37
2019-03-01T13:43:00.838Z,2.90
2019-03-01T13:45:41.636Z,5.57
2019-03-01T13:48:22.589Z,3.00
2019-03-01T13:51:03.206Z,7.90
2019-03-01T13:53:48.954Z,4.23
2019-03-01T13:56:24.353Z,5.70
2019-03-01T13:59:05.390Z,5.07
2019-03-01T14:01:47.727Z,7.90
2019-03-01T14:04:28.913Z,8.23
2019-03-01T14:07:09.861Z,7.70
2019-03-01T14:09:50.381Z,5.50
2019-03-01T14:12:30.617Z,6.17
2019-03-01T14:15:11.769Z,11.83
2019-03-01T14:17:52.392Z,10.80
2019-03-01T14:20:32.980Z,5.33
2019-03-01T14:23:13.590Z,7.63
2019-03-01T14:25:42.354Z,6.93
2019-03-01T14:28:31.588Z,7.13
2019-03-01T14:31:19.398Z,6.00
2019-03-01T14:33:59.666Z,4.23
2019-03-01T14:36:43.132Z,5.13
2019-03-01T14:39:23.102Z,5.03
2019-03-01T14:42:06.953Z,4.90
2019-03-01T14:44:46.444Z,2.80
2019-03-01T14:47:29.034Z,3.50
2019-03-01T14:50:10.063Z,5.10
2019-03-01T14:52:56.697Z,1.53
2019-03-01T14:55:34.408Z,3.73
2019-03-01T14:58:15.118Z,5.90
2019-03-01T15:00:56.161Z,2.87
2019-03-01T15:03:36.640Z,2.57
2019-03-01T15:06:19.230Z,4.90
2019-03-01T15:09:00.270Z,4.27
2019-03-01T15:11:44.147Z,4.63
2019-03-01T15:14:23.651Z,5.83
2019-03-01T15:17:04.206Z,6.53
2019-03-01T15:19:45.426Z,4.13
2019-03-01T15:22:26.456Z,3.83
2019-03-01T15:24:55.020Z,3.83
2019-03-01T15:27:42.813Z,2.50
2019-03-01T15:30:23.788Z,5.00
2019-03-01T15:33:04.630Z,3.67
2019-03-01T15:35:45.444Z,5.50
2019-03-01T15:38:27.654Z,7.57
2019-03-01T15:41:09.157Z,7.97
2019-03-01T15:43:49.769Z,4.90
2019-03-01T15:46:30.632Z,3.57
2019-03-01T15:49:14.902Z,4.97
2019-03-01T15:51:54.137Z,4.73
2019-03-01T15:54:35.917Z,6.97
2019-03-01T15:57:18.816Z,5.03
2019-03-01T15:59:59.673Z,8.23
2019-03-01T16:02:40.335Z,4.03
2019-03-01T16:05:20.911Z,4.30
2019-03-01T16:08:01.861Z,5.77
2019-03-01T16:10:42.733Z,6.00
2019-03-01T16:13:23.342Z,3.13
2019-03-01T16:16:04.319Z,5.53
2019-03-01T16:18:45.178Z,4.50
2019-03-01T16:21:26.352Z,4.17
2019-03-01T16:24:08.079Z,6.73
2019-03-01T16:26:49.416Z,5.07
2019-03-01T16:29:17.881Z,6.40
2019-03-01T16:32:08.121Z,4.23
2019-03-01T16:34:48.608Z,2.57
2019-03-01T16:37:29.388Z,4.23
2019-03-01T16:40:10.522Z,4.50
2019-03-01T16:42:54.396Z,4.80
2019-03-01T16:45:33.724Z,4.33
2019-03-01T16:48:16.919Z,3.00
2019-03-01T16:50:57.466Z,7.50
2019-03-01T16:53:40.602Z,4.53
2019-03-01T16:56:21.539Z,6.27
2019-03-01T16:58:50.055Z,5.43
2019-03-01T17:01:18.524Z,7.73
2019-03-01T17:03:49.605Z,9.20
2019-03-01T17:06:17.195Z,5.70
2019-03-01T17:08:45.712Z,6.97
2019-03-01T17:11:14.240Z,5.83
2019-03-01T17:13:42.723Z,8.63
2019-03-01T17:16:11.196Z,5.93
2019-03-01T17:18:39.646Z,7.27
2019-03-01T17:21:08.866Z,8.27
2019-03-01T17:23:39.401Z,4.57
2019-03-01T17:26:07.598Z,7.77
2019-03-01T17:28:36.069Z,4.67
2019-03-01T17:31:04.588Z,9.27
2019-03-01T17:33:33.052Z,3.43
2019-03-01T17:36:01.559Z,4.37
2019-03-01T17:38:30.027Z,4.77
2019-03-01T17:40:58.481Z,3.87
2019-03-01T17:43:29.656Z,5.10
2019-03-01T17:45:57.876Z,4.03
2019-03-01T17:48:26.967Z,3.23
2019-03-01T17:50:55.491Z,5.03
2019-03-01T17:53:25.471Z,5.63
2019-03-01T17:55:54.058Z,6.23
2019-03-01T17:58:23.077Z,11.03
2019-03-01T18:00:51.532Z,5.67
2019-03-01T18:03:20.103Z,6.47
2019-03-01T18:05:48.575Z,6.60
2019-03-01T18:08:17.092Z,3.70
2019-03-01T18:10:45.575Z,4.40
2019-03-01T18:13:15.063Z,3.77
2019-03-01T18:15:45.024Z,7.47
2019-03-01T18:18:13.927Z,8.67
2019-03-01T18:20:42.448Z,5.87
2019-03-01T18:23:10.913Z,7.73
2019-03-01T18:25:39.453Z,4.00
2019-03-01T18:28:08.008Z,5.57
2019-03-01T18:30:36.672Z,6.37
2019-03-01T18:33:05.337Z,4.43
2019-03-01T18:35:33.854Z,5.93
2019-03-01T18:38:02.324Z,5.20
2019-03-01T18:40:30.786Z,4.00
2019-03-01T18:42:59.232Z,5.47
2019-03-01T18:45:28.053Z,6.30
2019-03-01T18:47:56.571Z,4.87
2019-03-01T18:50:35.196Z,6.13
2019-03-01T18:53:04.348Z,5.33
2019-03-01T18:55:33.120Z,5.63
2019-03-01T18:58:01.734Z,7.30
2019-03-01T19:00:38.835Z,5.10
2019-03-01T19:03:07.636Z,6.63
2019-03-01T19:05:40.348Z,4.33
2019-03-01T19:08:06.795Z,5.73
2019-03-01T19:10:35.996Z,4.37
2019-03-01T19:13:04.681Z,6.60
2019-03-01T19:15:33.480Z,4.90
2019-03-01T19:18:04.159Z,5.53
2019-03-01T19:20:41.366Z,4.37
2019-03-01T19:23:08.274Z,5.53
2019-03-01T19:25:39.660Z,5.73
2019-03-01T19:28:08.339Z,4.17
2019-03-01T19:30:36.860Z,5.10
2019-03-01T19:33:05.476Z,5.70
2019-03-01T19:35:34.031Z,6.90
2019-03-01T19:38:02.573Z,6.77
2019-03-01T19:40:31.098Z,5.23
2019-03-01T19:43:01.284Z,4.43
2019-03-01T19:45:29.825Z,4.23
2019-03-01T19:48:03.231Z,5.97
2019-03-01T19:50:29.598Z,7.27
2019-03-01T19:52:58.113Z,5.87
2019-03-01T19:55:30.322Z,6.53
2019-03-01T19:57:58.870Z,6.50
2019-03-01T20:00:30.397Z,3.63
2019-03-01T20:02:58.916Z,6.60
2019-03-01T20:05:33.019Z,6.27
2019-03-01T20:08:01.729Z,5.37
2019-03-01T20:10:36.966Z,5.27
2019-03-01T20:13:07.101Z,6.43
2019-03-01T20:15:36.828Z,3.20
2019-03-01T20:18:06.665Z,3.73
2019-03-01T20:20:35.681Z,3.20
2019-03-01T20:23:05.614Z,3.20
2019-03-01T20:25:34.074Z,4.80
2019-03-01T20:28:02.608Z,5.03
2019-03-01T20:30:36.476Z,5.07
2019-03-01T20:33:05.092Z,6.57
2019-03-01T20:35:33.610Z,4.33
2019-03-01T20:38:04.357Z,6.10
2019-03-01T20:40:32.271Z,7.73
2019-03-01T20:43:06.309Z,5.47
2019-03-01T20:45:38.679Z,4.80
2019-03-01T20:48:09.540Z,6.80
2019-03-01T20:50:38.032Z,6.53
2019-03-01T20:53:10.167Z,6.00
2019-03-01T20:55:38.480Z,5.43
2019-03-01T20:58:09.688Z,7.27
2019-03-01T21:00:39.841Z,5.90
2019-03-01T21:03:08.296Z,8.07
2019-03-01T21:05:39.409Z,6.87
2019-03-01T21:08:07.844Z,5.93
2019-03-01T21:10:36.372Z,7.70
2019-03-01T21:13:04.823Z,8.73
2019-03-01T21:15:34.617Z,5.50
2019-03-01T21:18:03.447Z,8.33
2019-03-01T21:20:31.916Z,6.73
2019-03-01T21:23:00.355Z,7.87
2019-03-01T21:25:28.829Z,4.80
2019-03-01T21:27:57.672Z,10.47
2019-03-01T21:30:30.539Z,6.77
2019-03-01T21:32:59.046Z,5.60
2019-03-01T21:35:27.516Z,6.43
2019-03-01T21:37:56.105Z,6.20
2019-03-01T21:40:24.562Z,5.10
2019-03-01T21:42:57.396Z,5.07
2019-03-01T21:45:24.318Z,5.30
2019-03-01T21:47:52.874Z,8.13
2019-03-01T21:50:21.505Z,8.10
2019-03-01T21:52:50.106Z,6.13
2019-03-01T21:55:20.770Z,5.50
2019-03-01T21:57:49.287Z,5.93
2019-03-01T22:00:25.405Z,7.80
2019-03-01T22:02:54.324Z,5.23
2019-03-01T22:05:23.200Z,5.03
2019-03-01T22:07:52.011Z,6.43
2019-03-01T22:10:20.531Z,6.93
2019-03-01T22:12:48.989Z,5.00
2019-03-01T22:15:25.373Z,7.63
2019-03-01T22:17:53.489Z,6.33
2019-03-01T22:20:22.683Z,6.10
2019-03-01T22:22:51.245Z,6.37
2019-03-01T22:25:19.750Z,7.43
2019-03-01T22:27:48.353Z,4.77
2019-03-01T22:30:28.617Z,6.13
2019-03-01T22:32:57.139Z,9.40
2019-03-01T22:35:25.595Z,7.77
2019-03-01T22:37:54.081Z,7.70
2019-03-01T22:40:23.884Z,6.67
2019-03-01T22:42:52.747Z,6.73
2019-03-01T22:45:21.218Z,5.37
2019-03-01T22:47:49.678Z,8.63
2019-03-01T22:50:19.442Z,6.27
2019-03-01T22:52:48.003Z,6.17
2019-03-01T22:55:17.387Z,8.00
2019-03-01T22:57:46.061Z,7.73
2019-03-01T23:00:47.218Z,6.83
2019-03-01T23:03:19.019Z,8.17
2019-03-01T23:05:46.976Z,5.97
2019-03-01T23:08:15.435Z,9.67
2019-03-01T23:10:44.198Z,8.83
2019-03-01T23:13:12.721Z,7.43
2019-03-01T23:15:43.441Z,7.40
2019-03-01T23:18:11.376Z,9.67
2019-03-01T23:20:39.994Z,7.90
2019-03-01T23:23:10.023Z,9.00
2019-03-01T23:25:38.535Z,6.87
2019-03-01T23:28:08.232Z,6.97
2019-03-01T23:30:37.339Z,8.27
2019-03-01T23:33:05.924Z,8.00
2019-03-01T23:35:34.635Z,10.03
2019-03-01T23:38:03.116Z,7.07
2019-03-01T23:40:32.712Z,6.83
2019-03-01T23:43:01.885Z,9.47
2019-03-01T23:45:30.344Z,13.03
2019-03-01T23:47:58.798Z,6.13
2019-03-01T23:50:27.272Z,9.07
2019-03-01T23:52:58.829Z,8.90
2019-03-01T23:55:25.889Z,8.50
2019-03-01T23:57:54.364Z,11.50
